createdAt,value
2017-09-29T00:00:01.788Z,18.5
2017-09-29T00:01:01.374Z,18.62
2017-09-29T00:02:01.369Z,18.6
2017-09-29T00:03:01.705Z,18.62
2017-09-29T00:04:01.415Z,18.55
2017-09-29T00:05:01.444Z,18.49
2017-09-29T00:06:01.466Z,18.49
2017-09-29T00:07:01.487Z,18.44
2017-09-29T00:08:01.514Z,18.45
2017-09-29T00:09:01.538Z,18.47
2017-09-29T00:10:02.530Z,18.59
2017-09-29T00:11:01.581Z,18.47
2017-09-29T00:12:01.597Z,18.52
2017-09-29T00:13:01.620Z,18.53
2017-09-29T00:14:02.002Z,18.58
2017-09-29T00:15:01.667Z,18.59
2017-09-29T00:16:01.697Z,18.65
2017-09-29T00:17:01.715Z,18.62
2017-09-29T00:18:01.740Z,18.63
2017-09-29T00:19:01.758Z,18.44
2017-09-29T00:20:01.781Z,18.49
2017-09-29T00:21:01.806Z,18.44
2017-09-29T00:22:01.837Z,18.5
2017-09-29T00:23:01.851Z,18.53
2017-09-29T00:24:03.207Z,18.44
2017-09-29T00:25:02.934Z,18.47
2017-09-29T00:26:03.048Z,18.53
2017-09-29T00:27:03.052Z,18.5
2017-09-29T00:28:02.840Z,18.4
2017-09-29T00:29:03.053Z,18.45
2017-09-29T00:30:02.985Z,18.37
2017-09-29T00:31:02.988Z,18.44
2017-09-29T00:32:03.110Z,18.37
2017-09-29T00:33:03.019Z,18.35
2017-09-29T00:34:02.926Z,18.31
2017-09-29T00:35:03.051Z,18.29
2017-09-29T00:36:02.149Z,18.28
2017-09-29T00:37:02.168Z,18.25
2017-09-29T00:38:02.509Z,18.33
2017-09-29T00:39:02.218Z,18.37
2017-09-29T00:40:02.237Z,18.35
2017-09-29T00:41:02.264Z,18.19
2017-09-29T00:42:02.617Z,18.18
2017-09-29T00:43:02.305Z,18.23
2017-09-29T00:44:02.723Z,18.26
2017-09-29T00:45:02.355Z,18.18
2017-09-29T00:46:02.377Z,18.01
2017-09-29T00:47:02.396Z,18
2017-09-29T00:48:02.422Z,17.9
2017-09-29T00:49:02.445Z,17.85
2017-09-29T00:50:02.466Z,17.78
2017-09-29T00:51:02.492Z,17.8
2017-09-29T00:52:02.510Z,17.85
2017-09-29T00:53:02.534Z,17.95
2017-09-29T00:54:02.559Z,17.95
2017-09-29T00:55:02.596Z,18.01
2017-09-29T00:56:02.621Z,18.05
2017-09-29T00:57:02.635Z,17.92
2017-09-29T00:58:02.650Z,17.87
2017-09-29T00:59:02.670Z,17.86
2017-09-29T01:00:02.764Z,17.74
2017-09-29T01:01:03.056Z,17.72
2017-09-29T01:02:02.743Z,17.72
2017-09-29T01:03:02.784Z,17.72
2017-09-29T01:04:02.785Z,17.71
2017-09-29T01:05:02.811Z,17.64
2017-09-29T01:06:02.827Z,17.6
2017-09-29T01:07:03.173Z,17.72
2017-09-29T01:08:02.869Z,17.78
2017-09-29T01:09:02.896Z,17.85
2017-09-29T01:10:02.914Z,17.86
2017-09-29T01:11:02.940Z,17.86
2017-09-29T01:12:02.990Z,17.85
2017-09-29T01:13:03.008Z,17.83
2017-09-29T01:14:03.009Z,17.87
2017-09-29T01:15:03.059Z,17.74
2017-09-29T01:16:03.367Z,17.89
2017-09-29T01:17:03.073Z,17.89
2017-09-29T01:18:03.116Z,17.79
2017-09-29T01:19:03.176Z,17.79
2017-09-29T01:20:03.143Z,17.82
2017-09-29T01:21:03.167Z,17.76
2017-09-29T01:22:03.189Z,17.78
2017-09-29T01:23:03.212Z,17.82
2017-09-29T01:24:03.240Z,17.74
2017-09-29T01:25:03.279Z,17.79
2017-09-29T01:26:03.279Z,17.74
2017-09-29T01:27:03.299Z,17.7
2017-09-29T01:28:03.320Z,17.71
2017-09-29T01:29:03.401Z,17.65
2017-09-29T01:30:03.383Z,17.71
2017-09-29T01:31:04.267Z,17.78
2017-09-29T01:32:04.342Z,17.7
2017-09-29T01:33:03.502Z,17.67
2017-09-29T01:34:03.533Z,17.67
2017-09-29T01:35:03.581Z,17.68
2017-09-29T01:36:03.503Z,17.7
2017-09-29T01:37:03.525Z,17.57
2017-09-29T01:38:03.571Z,17.6
2017-09-29T01:39:03.572Z,17.67
2017-09-29T01:40:03.903Z,17.74
2017-09-29T01:41:03.645Z,17.67
2017-09-29T01:42:03.960Z,17.57
2017-09-29T01:43:03.659Z,17.51
2017-09-29T01:44:03.681Z,17.59
2017-09-29T01:45:03.706Z,17.56
2017-09-29T01:46:03.728Z,17.48
2017-09-29T01:47:03.813Z,17.49
2017-09-29T01:48:03.790Z,17.39
2017-09-29T01:49:03.839Z,17.51
2017-09-29T01:50:03.865Z,17.48
2017-09-29T01:51:03.841Z,17.51
2017-09-29T01:52:04.180Z,17.46
2017-09-29T01:53:03.894Z,17.44
2017-09-29T01:54:03.995Z,17.38
2017-09-29T01:55:03.927Z,17.41
2017-09-29T01:56:04.260Z,17.38
2017-09-29T01:57:04.008Z,17.36
2017-09-29T01:58:03.994Z,17.3
2017-09-29T01:59:04.024Z,17.26
2017-09-29T02:00:04.041Z,17.2
2017-09-29T02:01:04.073Z,17.2
2017-09-29T02:02:04.089Z,17.26
2017-09-29T02:03:04.109Z,17.11
2017-09-29T02:04:04.220Z,17.06
2017-09-29T02:05:04.462Z,17.06
2017-09-29T02:06:04.174Z,17.14
2017-09-29T02:07:04.193Z,17.15
2017-09-29T02:08:04.218Z,17.11
2017-09-29T02:09:04.266Z,17.22
2017-09-29T02:10:05.601Z,17.16
2017-09-29T02:11:05.126Z,17.22
2017-09-29T02:12:04.655Z,17.14
2017-09-29T02:13:05.467Z,17.16
2017-09-29T02:14:05.817Z,17.15
2017-09-29T02:15:04.918Z,17.24
2017-09-29T02:16:04.708Z,17.15
2017-09-29T02:17:04.411Z,17.14
2017-09-29T02:18:04.829Z,17.15
2017-09-29T02:19:04.454Z,17.3
2017-09-29T02:20:04.793Z,17.3
2017-09-29T02:21:04.497Z,17.3
2017-09-29T02:22:04.524Z,17.33
2017-09-29T02:23:04.543Z,17.29
2017-09-29T02:24:04.876Z,17.2
2017-09-29T02:25:04.650Z,17.19
2017-09-29T02:26:04.616Z,17.06
2017-09-29T02:27:04.995Z,17.14
2017-09-29T02:28:04.659Z,17.11
2017-09-29T02:29:04.679Z,16.97
2017-09-29T02:30:04.704Z,16.96
2017-09-29T02:31:04.727Z,16.97
2017-09-29T02:32:05.051Z,16.94
2017-09-29T02:33:05.083Z,17.02
2017-09-29T02:34:04.789Z,17.08
2017-09-29T02:35:04.921Z,17.09
2017-09-29T02:36:04.829Z,17.06
2017-09-29T02:37:04.852Z,17.05
2017-09-29T02:38:04.886Z,17.09
2017-09-29T02:39:04.895Z,17.08
2017-09-29T02:40:05.287Z,17.02
2017-09-29T02:41:04.958Z,17.06
2017-09-29T02:42:04.963Z,17.02
2017-09-29T02:43:04.982Z,17.05
2017-09-29T02:44:05.057Z,17.15
2017-09-29T02:45:05.142Z,17.02
2017-09-29T02:46:05.049Z,17.01
2017-09-29T02:47:05.072Z,17.14
2017-09-29T02:48:05.096Z,17.04
2017-09-29T02:49:05.112Z,17.11
2017-09-29T02:50:05.139Z,17.14
2017-09-29T02:51:05.173Z,17.09
2017-09-29T02:52:05.565Z,17.15
2017-09-29T02:53:05.211Z,17.08
2017-09-29T02:54:05.220Z,17.05
2017-09-29T02:55:05.246Z,17.05
2017-09-29T02:56:05.305Z,17.16
2017-09-29T02:57:05.613Z,17.2
2017-09-29T02:58:05.325Z,17.08
2017-09-29T02:59:05.339Z,17.02
2017-09-29T03:00:05.357Z,17.08
2017-09-29T03:01:05.386Z,17.05
2017-09-29T03:02:05.493Z,16.97
2017-09-29T03:03:05.422Z,16.9
2017-09-29T03:04:05.465Z,16.86
2017-09-29T03:05:05.473Z,16.79
2017-09-29T03:06:05.485Z,16.9
2017-09-29T03:07:05.509Z,16.75
2017-09-29T03:08:05.531Z,16.75
2017-09-29T03:09:05.553Z,16.83
2017-09-29T03:10:05.592Z,16.81
2017-09-29T03:11:05.936Z,16.64
2017-09-29T03:12:05.624Z,16.66
2017-09-29T03:13:05.647Z,16.68
2017-09-29T03:14:05.774Z,16.6
2017-09-29T03:15:05.685Z,16.64
2017-09-29T03:16:05.713Z,16.64
2017-09-29T03:17:05.789Z,16.56
2017-09-29T03:18:06.095Z,16.53
2017-09-29T03:19:05.775Z,16.54
2017-09-29T03:20:05.803Z,16.58
2017-09-29T03:21:05.825Z,16.53
2017-09-29T03:22:05.850Z,16.58
2017-09-29T03:23:05.860Z,16.56
2017-09-29T03:24:05.886Z,16.57
2017-09-29T03:25:06.405Z,16.51
2017-09-29T03:26:07.635Z,16.56
2017-09-29T03:27:07.335Z,16.58
2017-09-29T03:28:06.001Z,16.6
2017-09-29T03:29:06.079Z,16.64
2017-09-29T03:30:06.096Z,16.65
2017-09-29T03:31:06.042Z,16.65
2017-09-29T03:32:06.372Z,16.65
2017-09-29T03:33:06.087Z,16.61
2017-09-29T03:34:06.461Z,16.66
2017-09-29T03:35:06.530Z,16.64
2017-09-29T03:36:06.153Z,16.66
2017-09-29T03:37:06.493Z,16.64
2017-09-29T03:38:06.195Z,16.66
2017-09-29T03:39:06.691Z,16.68
2017-09-29T03:40:06.244Z,16.74
2017-09-29T03:41:06.262Z,16.66
2017-09-29T03:42:06.291Z,16.6
2017-09-29T03:43:06.312Z,16.6
2017-09-29T03:44:06.697Z,16.51
2017-09-29T03:45:06.351Z,16.58
2017-09-29T03:46:06.369Z,16.56
2017-09-29T03:47:06.705Z,16.6
2017-09-29T03:48:06.730Z,16.6
2017-09-29T03:49:06.875Z,16.57
2017-09-29T03:50:06.513Z,16.6
2017-09-29T03:51:06.482Z,16.61
2017-09-29T03:52:06.814Z,16.53
2017-09-29T03:53:06.525Z,16.53
2017-09-29T03:54:06.878Z,16.65
2017-09-29T03:55:06.588Z,16.72
2017-09-29T03:56:06.631Z,16.64
2017-09-29T03:57:06.611Z,16.64
2017-09-29T03:58:06.638Z,16.61
2017-09-29T03:59:06.779Z,16.65
2017-09-29T04:00:06.681Z,16.61
2017-09-29T04:01:06.694Z,16.64
2017-09-29T04:02:06.720Z,16.6
2017-09-29T04:03:06.752Z,16.6
2017-09-29T04:04:06.821Z,16.57
2017-09-29T04:05:06.787Z,16.61
2017-09-29T04:06:06.814Z,16.71
2017-09-29T04:07:06.847Z,16.71
2017-09-29T04:08:06.848Z,16.58
2017-09-29T04:09:06.991Z,16.57
2017-09-29T04:10:06.895Z,16.65
2017-09-29T04:11:06.914Z,16.6
2017-09-29T04:12:06.939Z,16.53
2017-09-29T04:13:06.982Z,16.58
2017-09-29T04:14:07.006Z,16.68
2017-09-29T04:15:07.006Z,16.64
2017-09-29T04:16:07.030Z,16.6
2017-09-29T04:17:07.049Z,16.6
2017-09-29T04:18:07.205Z,16.56
2017-09-29T04:19:07.099Z,16.53
2017-09-29T04:20:07.426Z,16.58
2017-09-29T04:21:07.142Z,16.53
2017-09-29T04:22:07.176Z,16.5
2017-09-29T04:23:07.176Z,16.41
2017-09-29T04:24:07.203Z,16.38
2017-09-29T04:25:07.230Z,16.39
2017-09-29T04:26:07.247Z,16.32
2017-09-29T04:27:07.260Z,16.28
2017-09-29T04:28:07.285Z,16.23
2017-09-29T04:29:07.465Z,16.21
2017-09-29T04:30:07.494Z,16.33
2017-09-29T04:31:07.360Z,16.38
2017-09-29T04:32:07.378Z,16.39
2017-09-29T04:33:07.397Z,16.41
2017-09-29T04:34:07.421Z,16.32
2017-09-29T04:35:07.753Z,16.32
2017-09-29T04:36:07.473Z,16.38
2017-09-29T04:37:07.483Z,16.41
2017-09-29T04:38:07.508Z,16.46
2017-09-29T04:39:07.528Z,16.56
2017-09-29T04:40:07.859Z,16.61
2017-09-29T04:41:07.568Z,16.54
2017-09-29T04:42:07.591Z,16.54
2017-09-29T04:43:07.612Z,16.42
2017-09-29T04:44:07.636Z,16.42
2017-09-29T04:45:07.665Z,16.39
2017-09-29T04:46:07.688Z,16.58
2017-09-29T04:47:08.056Z,16.54
2017-09-29T04:48:07.720Z,16.56
2017-09-29T04:49:07.746Z,16.66
2017-09-29T04:50:07.775Z,16.6
2017-09-29T04:51:08.101Z,16.57
2017-09-29T04:52:07.806Z,16.57
2017-09-29T04:53:07.845Z,16.51
2017-09-29T04:54:07.862Z,16.65
2017-09-29T04:55:08.276Z,16.58
2017-09-29T04:56:07.912Z,16.56
2017-09-29T04:57:07.919Z,16.71
2017-09-29T04:58:07.938Z,16.68
2017-09-29T04:59:07.969Z,16.56
2017-09-29T05:00:08.310Z,16.65
2017-09-29T05:01:08.008Z,16.58
2017-09-29T05:02:08.233Z,16.65
2017-09-29T05:03:08.053Z,16.64
2017-09-29T05:04:08.078Z,16.66
2017-09-29T05:05:08.093Z,16.69
2017-09-29T05:06:08.121Z,16.57
2017-09-29T05:07:08.142Z,16.66
2017-09-29T05:08:08.160Z,16.61
2017-09-29T05:09:08.492Z,16.58
2017-09-29T05:10:08.532Z,16.68
2017-09-29T05:11:08.230Z,16.68
2017-09-29T05:12:08.504Z,16.61
2017-09-29T05:13:08.319Z,16.74
2017-09-29T05:14:08.296Z,16.72
2017-09-29T05:15:08.636Z,16.81
2017-09-29T05:16:08.359Z,16.89
2017-09-29T05:17:08.385Z,16.86
2017-09-29T05:18:08.427Z,16.89
2017-09-29T05:19:08.404Z,16.89
2017-09-29T05:20:08.459Z,16.87
2017-09-29T05:21:08.455Z,16.96
2017-09-29T05:22:08.637Z,17.01
2017-09-29T05:23:08.546Z,16.97
2017-09-29T05:24:08.887Z,17.06
2017-09-29T05:25:08.562Z,17.05
2017-09-29T05:26:08.566Z,16.99
2017-09-29T05:27:08.651Z,17.08
2017-09-29T05:28:08.661Z,17.14
2017-09-29T05:29:08.635Z,17.15
2017-09-29T05:30:08.665Z,17.26
2017-09-29T05:31:08.669Z,17.29
2017-09-29T05:32:08.692Z,17.3
2017-09-29T05:33:09.257Z,17.3
2017-09-29T05:34:08.733Z,17.27
2017-09-29T05:35:08.934Z,17.36
2017-09-29T05:36:08.791Z,17.34
2017-09-29T05:37:09.112Z,17.31
2017-09-29T05:38:08.830Z,17.34
2017-09-29T05:39:09.163Z,17.34
2017-09-29T05:40:08.884Z,17.39
2017-09-29T05:41:08.897Z,17.45
2017-09-29T05:42:08.915Z,17.46
2017-09-29T05:43:09.059Z,17.54
2017-09-29T05:44:08.965Z,17.49
2017-09-29T05:45:09.001Z,17.46
2017-09-29T05:46:09.102Z,17.51
2017-09-29T05:47:09.029Z,17.42
2017-09-29T05:48:09.052Z,17.34
2017-09-29T05:49:09.070Z,17.39
2017-09-29T05:50:09.425Z,17.36
2017-09-29T05:51:09.765Z,17.33
2017-09-29T05:52:09.463Z,17.38
2017-09-29T05:53:09.309Z,17.38
2017-09-29T05:54:09.506Z,17.27
2017-09-29T05:55:09.208Z,17.24
2017-09-29T05:56:09.344Z,16.99
2017-09-29T05:57:09.253Z,16.94
2017-09-29T05:58:09.275Z,16.89
2017-09-29T05:59:09.306Z,17.06
2017-09-29T06:00:09.596Z,17.01
2017-09-29T06:01:09.350Z,16.68
2017-09-29T06:02:09.369Z,16.71
2017-09-29T06:03:09.397Z,16.69
2017-09-29T06:04:09.504Z,16.71
2017-09-29T06:05:09.442Z,16.64
2017-09-29T06:06:09.462Z,16.64
2017-09-29T06:07:09.597Z,16.66
2017-09-29T06:08:09.506Z,16.83
2017-09-29T06:09:09.529Z,16.91
2017-09-29T06:10:09.563Z,16.96
2017-09-29T06:11:09.578Z,16.96
2017-09-29T06:12:09.590Z,17.08
2017-09-29T06:13:09.616Z,17.15
2017-09-29T06:14:09.732Z,17.22
2017-09-29T06:15:10.183Z,17.23
2017-09-29T06:16:09.699Z,17.36
2017-09-29T06:17:09.760Z,17.33
2017-09-29T06:18:09.911Z,17.39
2017-09-29T06:19:09.748Z,17.42
2017-09-29T06:20:09.803Z,17.51
2017-09-29T06:21:09.797Z,17.72
2017-09-29T06:22:09.817Z,17.74
2017-09-29T06:23:09.883Z,17.9
2017-09-29T06:24:09.863Z,17.94
2017-09-29T06:25:09.897Z,17.97
2017-09-29T06:26:09.910Z,18.03
2017-09-29T06:27:09.950Z,18.01
2017-09-29T06:28:09.964Z,18.26
2017-09-29T06:29:10.158Z,18.31
2017-09-29T06:30:10.002Z,18.38
2017-09-29T06:31:10.345Z,18.38
2017-09-29T06:32:10.052Z,18.38
2017-09-29T06:33:10.078Z,18.44
2017-09-29T06:34:10.146Z,18.55
2017-09-29T06:35:10.266Z,18.53
2017-09-29T06:36:10.175Z,18.62
2017-09-29T06:37:10.161Z,18.8
2017-09-29T06:38:10.193Z,18.78
2017-09-29T06:39:10.225Z,18.84
2017-09-29T06:40:10.247Z,18.93
2017-09-29T06:41:10.255Z,18.93
2017-09-29T06:42:10.285Z,19
2017-09-29T06:43:10.302Z,18.96
2017-09-29T06:44:10.321Z,19
2017-09-29T06:45:10.350Z,19.15
2017-09-29T06:46:10.379Z,18.98
2017-09-29T06:47:10.394Z,19.16
2017-09-29T06:48:10.456Z,19.14
2017-09-29T06:49:10.442Z,19.16
2017-09-29T06:50:10.481Z,19.15
2017-09-29T06:51:10.487Z,19.19
2017-09-29T06:52:10.512Z,19.34
2017-09-29T06:53:10.533Z,19.41
2017-09-29T06:54:10.558Z,19.34
2017-09-29T06:55:10.579Z,19.36
2017-09-29T06:56:10.600Z,19.3
2017-09-29T06:57:10.626Z,19.39
2017-09-29T06:58:10.650Z,19.58
2017-09-29T06:59:10.674Z,19.67
2017-09-29T07:00:11.280Z,19.59
2017-09-29T07:01:10.724Z,19.66
2017-09-29T07:02:10.745Z,19.82
2017-09-29T07:03:10.766Z,19.95
2017-09-29T07:04:10.797Z,19.92
2017-09-29T07:05:10.818Z,20.02
2017-09-29T07:06:10.849Z,20.21
2017-09-29T07:07:10.863Z,20.21
2017-09-29T07:08:10.896Z,20.32
2017-09-29T07:09:10.918Z,20.36
2017-09-29T07:10:11.166Z,20.43
2017-09-29T07:11:10.980Z,20.5
2017-09-29T07:12:11.001Z,20.48
2017-09-29T07:13:11.015Z,20.55
2017-09-29T07:14:11.038Z,20.66
2017-09-29T07:15:11.461Z,20.69
2017-09-29T07:16:11.085Z,20.72
2017-09-29T07:17:11.105Z,21.02
2017-09-29T07:18:11.140Z,21.06
2017-09-29T07:19:11.657Z,21.15
2017-09-29T07:20:11.965Z,21.24
2017-09-29T07:21:12.245Z,21.27
2017-09-29T07:22:11.231Z,21.35
2017-09-29T07:23:11.257Z,21.43
2017-09-29T07:24:11.281Z,21.48
2017-09-29T07:25:11.308Z,21.42
2017-09-29T07:26:11.337Z,21.4
2017-09-29T07:27:11.678Z,21.46
2017-09-29T07:28:11.395Z,21.54
2017-09-29T07:29:11.407Z,21.67
2017-09-29T07:30:11.438Z,21.69
2017-09-29T07:31:11.462Z,21.64
2017-09-29T07:32:11.489Z,21.67
2017-09-29T07:33:11.509Z,21.72
2017-09-29T07:34:11.531Z,21.66
2017-09-29T07:35:11.554Z,21.8
2017-09-29T07:36:11.769Z,21.72
2017-09-29T07:37:11.949Z,21.93
2017-09-29T07:38:12.010Z,22.06
2017-09-29T07:39:12.303Z,22.2
2017-09-29T07:40:11.692Z,22.3
2017-09-29T07:41:11.712Z,22.44
2017-09-29T07:42:12.049Z,22.45
2017-09-29T07:43:12.117Z,22.41
2017-09-29T07:44:12.493Z,22.44
2017-09-29T07:45:12.040Z,22.53
2017-09-29T07:46:11.833Z,22.6
2017-09-29T07:47:12.173Z,22.43
2017-09-29T07:48:12.200Z,22.45
2017-09-29T07:49:11.912Z,22.54
2017-09-29T07:50:11.943Z,22.62
2017-09-29T07:51:11.967Z,22.53
2017-09-29T07:52:11.991Z,22.68
2017-09-29T07:53:12.021Z,22.62
2017-09-29T07:54:12.036Z,22.73
2017-09-29T07:55:12.071Z,22.66
2017-09-29T07:56:12.095Z,22.68
2017-09-29T07:57:12.119Z,22.6
2017-09-29T07:58:12.183Z,22.65
2017-09-29T07:59:12.171Z,22.63
2017-09-29T08:00:12.201Z,22.78
2017-09-29T08:01:12.268Z,22.69
2017-09-29T08:02:12.243Z,22.78
2017-09-29T08:03:12.680Z,22.81
2017-09-29T08:04:12.607Z,22.91
2017-09-29T08:05:12.327Z,22.94
2017-09-29T08:06:12.661Z,22.84
2017-09-29T08:07:12.377Z,22.85
2017-09-29T08:08:12.401Z,22.83
2017-09-29T08:09:12.426Z,22.87
2017-09-29T08:10:12.449Z,22.98
2017-09-29T08:11:12.476Z,22.94
2017-09-29T08:12:12.504Z,23.05
2017-09-29T08:13:12.552Z,23.06
2017-09-29T08:14:12.552Z,22.93
2017-09-29T08:15:12.595Z,22.85
2017-09-29T08:16:12.602Z,22.94
2017-09-29T08:17:12.680Z,23
2017-09-29T08:18:12.656Z,22.85
2017-09-29T08:19:12.683Z,22.83
2017-09-29T08:20:12.704Z,22.84
2017-09-29T08:21:12.747Z,22.84
2017-09-29T08:22:12.773Z,22.84
2017-09-29T08:23:13.171Z,22.84
2017-09-29T08:24:12.819Z,22.96
2017-09-29T08:25:12.837Z,23.03
2017-09-29T08:26:12.865Z,22.81
2017-09-29T08:27:12.901Z,22.84
2017-09-29T08:28:12.916Z,22.94
2017-09-29T08:29:12.951Z,22.94
2017-09-29T08:30:13.010Z,22.76
2017-09-29T08:31:12.991Z,22.8
2017-09-29T08:32:13.074Z,22.8
2017-09-29T08:33:13.044Z,22.76
2017-09-29T08:34:13.073Z,22.84
2017-09-29T08:35:13.100Z,22.76
2017-09-29T08:36:13.120Z,22.66
2017-09-29T08:37:13.169Z,22.33
2017-09-29T08:38:13.171Z,22.3
2017-09-29T08:39:13.199Z,22.2
2017-09-29T08:40:13.229Z,22.06
2017-09-29T08:41:13.255Z,22.1
2017-09-29T08:42:13.585Z,22.18
2017-09-29T08:43:13.320Z,22.33
2017-09-29T08:44:13.327Z,22.41
2017-09-29T08:45:13.370Z,22.47
2017-09-29T08:46:13.689Z,22.55
2017-09-29T08:47:13.466Z,22.43
2017-09-29T08:48:13.428Z,22.35
2017-09-29T08:49:13.459Z,22.45
2017-09-29T08:50:13.489Z,22.47
2017-09-29T08:51:13.508Z,22.39
2017-09-29T08:52:13.537Z,22.51
2017-09-29T08:53:13.561Z,22.63
2017-09-29T08:54:13.899Z,22.76
2017-09-29T08:55:13.609Z,22.85
2017-09-29T08:56:13.640Z,22.9
2017-09-29T08:57:13.662Z,23.08
2017-09-29T08:58:13.691Z,22.93
2017-09-29T08:59:13.713Z,22.99
2017-09-29T09:00:13.742Z,22.87
2017-09-29T09:01:13.770Z,22.88
2017-09-29T09:02:14.176Z,22.75
2017-09-29T09:03:13.817Z,22.62
2017-09-29T09:04:13.843Z,22.68
2017-09-29T09:05:13.883Z,22.65
2017-09-29T09:06:13.893Z,22.63
2017-09-29T09:07:13.922Z,22.43
2017-09-29T09:08:13.945Z,22.43
2017-09-29T09:09:13.968Z,22.51
2017-09-29T09:10:13.998Z,22.51
2017-09-29T09:11:14.029Z,22.66
2017-09-29T09:12:14.048Z,22.75
2017-09-29T09:13:14.075Z,22.75
2017-09-29T09:14:14.104Z,22.81
2017-09-29T09:15:14.127Z,22.7
2017-09-29T09:16:14.169Z,22.83
2017-09-29T09:17:14.275Z,23.05
2017-09-29T09:18:14.202Z,23.2
2017-09-29T09:19:14.238Z,23.27
2017-09-29T09:20:14.257Z,23.23
2017-09-29T09:21:14.757Z,23.34
2017-09-29T09:22:14.310Z,23.31
2017-09-29T09:23:14.349Z,23.36
2017-09-29T09:24:14.365Z,23.58
2017-09-29T09:25:14.393Z,23.47
2017-09-29T09:26:14.418Z,23.47
2017-09-29T09:27:14.447Z,23.47
2017-09-29T09:28:14.466Z,23.51
2017-09-29T09:29:14.493Z,23.61
2017-09-29T09:30:14.524Z,23.74
2017-09-29T09:31:14.545Z,23.99
2017-09-29T09:32:14.574Z,23.87
2017-09-29T09:33:14.656Z,23.95
2017-09-29T09:34:14.639Z,23.92
2017-09-29T09:35:14.657Z,24.05
2017-09-29T09:36:14.994Z,24.08
2017-09-29T09:37:14.712Z,24.29
2017-09-29T09:38:14.738Z,24.43
2017-09-29T09:39:14.760Z,24.5
2017-09-29T09:40:14.789Z,24.63
2017-09-29T09:41:14.820Z,24.63
2017-09-29T09:42:14.854Z,24.77
2017-09-29T09:43:14.872Z,24.86
2017-09-29T09:44:14.902Z,25.03
2017-09-29T09:45:14.921Z,25.16
2017-09-29T09:46:14.956Z,25.38
2017-09-29T09:47:14.987Z,25.33
2017-09-29T09:48:15.349Z,25.58
2017-09-29T09:49:15.350Z,25.68
2017-09-29T09:50:15.112Z,25.7
2017-09-29T09:51:15.091Z,25.66
2017-09-29T09:52:15.119Z,25.91
2017-09-29T09:53:15.154Z,26.18
2017-09-29T09:54:15.174Z,26.43
2017-09-29T09:55:15.204Z,26.6
2017-09-29T09:56:15.242Z,26.9
2017-09-29T09:57:15.270Z,27.2
2017-09-29T09:58:15.294Z,27.36
2017-09-29T09:59:15.321Z,27.55
2017-09-29T10:00:15.350Z,27.74
2017-09-29T10:01:15.383Z,28.02
2017-09-29T10:02:15.413Z,28.38
2017-09-29T10:03:15.441Z,28.41
2017-09-29T10:04:15.478Z,28.45
2017-09-29T10:05:15.565Z,28.27
2017-09-29T10:06:15.544Z,28.19
2017-09-29T10:07:15.565Z,28.29
2017-09-29T10:08:15.595Z,28.39
2017-09-29T10:09:15.628Z,28.42
2017-09-29T10:10:15.664Z,28.42
2017-09-29T10:11:15.688Z,28.39
2017-09-29T10:12:15.721Z,28.59
2017-09-29T10:13:16.068Z,28.67
2017-09-29T10:14:15.786Z,28.93
2017-09-29T10:15:15.814Z,29.16
2017-09-29T10:16:15.846Z,29.26
2017-09-29T10:17:15.884Z,29.56
2017-09-29T10:18:15.907Z,29.81
2017-09-29T10:19:15.943Z,30.03
2017-09-29T10:20:16.018Z,30.18
2017-09-29T10:21:16.001Z,30.34
2017-09-29T10:22:16.043Z,29.91
2017-09-29T10:23:16.382Z,30
2017-09-29T10:24:16.094Z,30.09
2017-09-29T10:25:16.131Z,30.1
2017-09-29T10:26:16.162Z,30.15
2017-09-29T10:27:16.192Z,30.25
2017-09-29T10:28:16.230Z,30.48
2017-09-29T10:29:16.271Z,30.69
2017-09-29T10:30:16.293Z,30.54
2017-09-29T10:31:16.329Z,30.77
2017-09-29T10:32:16.364Z,30.94
2017-09-29T10:33:16.392Z,31.22
2017-09-29T10:34:16.419Z,31.36
2017-09-29T10:35:16.502Z,31.49
2017-09-29T10:36:17.122Z,31.18
2017-09-29T10:37:16.516Z,31.31
2017-09-29T10:38:16.554Z,31.31
2017-09-29T10:39:16.584Z,31.51
2017-09-29T10:40:16.614Z,31.71
2017-09-29T10:41:16.651Z,31.9
2017-09-29T10:42:17.050Z,32.01
2017-09-29T10:43:16.715Z,32.22
2017-09-29T10:44:16.746Z,32.33
2017-09-29T10:45:16.777Z,32.43
2017-09-29T10:46:16.971Z,32.37
2017-09-29T10:47:16.853Z,32.4
2017-09-29T10:48:16.889Z,32.48
2017-09-29T10:49:16.909Z,32.48
2017-09-29T10:50:16.998Z,32.37
2017-09-29T10:51:17.296Z,32.38
2017-09-29T10:52:17.018Z,32.29
2017-09-29T10:53:17.048Z,32.41
2017-09-29T10:54:17.078Z,32.41
2017-09-29T10:55:17.113Z,32.56
2017-09-29T10:56:17.903Z,32.68
2017-09-29T10:57:17.174Z,32.4
2017-09-29T10:58:17.220Z,32.18
2017-09-29T10:59:17.243Z,32.38
2017-09-29T11:00:17.275Z,32.43
2017-09-29T11:01:17.313Z,32.43
2017-09-29T11:02:17.337Z,32.65
2017-09-29T11:03:17.399Z,32.87
2017-09-29T11:04:17.725Z,33.04
2017-09-29T11:05:17.443Z,33.15
2017-09-29T11:06:17.473Z,33.22
2017-09-29T11:07:17.504Z,33.14
2017-09-29T11:08:17.539Z,33.22
2017-09-29T11:09:17.625Z,33.04
2017-09-29T11:10:17.604Z,32.65
2017-09-29T11:11:17.644Z,32.56
2017-09-29T11:12:17.670Z,32.55
2017-09-29T11:13:17.712Z,32.49
2017-09-29T11:14:17.737Z,32.43
2017-09-29T11:15:18.141Z,32.58
2017-09-29T11:16:17.838Z,32.27
2017-09-29T11:17:17.838Z,32.33
2017-09-29T11:18:17.868Z,32.38
2017-09-29T11:19:17.905Z,32.77
2017-09-29T11:20:18.138Z,33.11
2017-09-29T11:21:17.969Z,33.23
2017-09-29T11:22:18.007Z,33.37
2017-09-29T11:23:18.040Z,33.24
2017-09-29T11:24:18.118Z,33.04
2017-09-29T11:25:18.105Z,32.89
2017-09-29T11:26:18.134Z,33
2017-09-29T11:27:18.174Z,33.05
2017-09-29T11:28:18.208Z,32.74
2017-09-29T11:29:18.242Z,32.07
2017-09-29T11:30:18.290Z,31.9
2017-09-29T11:31:18.302Z,31.4
2017-09-29T11:32:18.333Z,31.18
2017-09-29T11:33:18.680Z,31.02
2017-09-29T11:34:18.815Z,30.84
2017-09-29T11:35:18.432Z,30.66
2017-09-29T11:36:18.520Z,30.4
2017-09-29T11:37:18.499Z,30.34
2017-09-29T11:38:18.528Z,30.09
2017-09-29T11:39:18.558Z,30.12
2017-09-29T11:40:18.594Z,29.72
2017-09-29T11:41:18.669Z,28.93
2017-09-29T11:42:18.969Z,28.82
2017-09-29T11:43:18.705Z,28.85
2017-09-29T11:44:18.718Z,29.04
2017-09-29T11:45:19.057Z,28.42
2017-09-29T11:46:19.096Z,28.52
2017-09-29T11:47:18.811Z,28.64
2017-09-29T11:48:18.843Z,28.49
2017-09-29T11:49:18.864Z,28.48
2017-09-29T11:50:19.220Z,28.05
2017-09-29T11:51:18.931Z,27.68
2017-09-29T11:52:18.957Z,27.52
2017-09-29T11:53:19.323Z,27.75
2017-09-29T11:54:19.025Z,27.85
2017-09-29T11:55:19.436Z,27.85
2017-09-29T11:56:19.084Z,27.75
2017-09-29T11:57:19.119Z,27.58
2017-09-29T11:58:19.143Z,27.6
2017-09-29T11:59:19.168Z,27.73
2017-09-29T12:00:19.867Z,27.93
2017-09-29T12:01:19.223Z,27.86
2017-09-29T12:02:19.266Z,28
2017-09-29T12:03:19.282Z,28.19
2017-09-29T12:04:19.308Z,28.11
2017-09-29T12:05:19.341Z,28.47
2017-09-29T12:06:19.374Z,28.51
2017-09-29T12:07:19.401Z,28.69
2017-09-29T12:08:19.433Z,28.89
2017-09-29T12:09:19.457Z,29.07
2017-09-29T12:10:19.493Z,29.19
2017-09-29T12:11:19.523Z,29.04
2017-09-29T12:12:19.546Z,29.02
2017-09-29T12:13:19.578Z,29.01
2017-09-29T12:14:19.605Z,29.14
2017-09-29T12:15:19.636Z,29.27
2017-09-29T12:16:19.978Z,29.24
2017-09-29T12:17:19.741Z,29.16
2017-09-29T12:18:19.728Z,29.14
2017-09-29T12:19:19.759Z,29.23
2017-09-29T12:20:19.782Z,29.31
2017-09-29T12:21:19.809Z,29.14
2017-09-29T12:22:19.838Z,29.01
2017-09-29T12:23:19.870Z,28.93
2017-09-29T12:24:19.898Z,28.76
2017-09-29T12:25:19.927Z,28.82
2017-09-29T12:26:19.955Z,28.51
2017-09-29T12:27:19.997Z,28.22
2017-09-29T12:28:20.023Z,28.22
2017-09-29T12:29:20.045Z,27.83
2017-09-29T12:30:20.079Z,27.86
2017-09-29T12:31:20.107Z,27.58
2017-09-29T12:32:20.183Z,26.78
2017-09-29T12:33:20.171Z,26.83
2017-09-29T12:34:20.202Z,27.07
2017-09-29T12:35:20.532Z,27.18
2017-09-29T12:36:20.250Z,27.17
2017-09-29T12:37:20.277Z,27.11
2017-09-29T12:38:20.350Z,27.26
2017-09-29T12:39:20.338Z,27.48
2017-09-29T12:40:20.366Z,27.59
2017-09-29T12:41:20.407Z,27.93
2017-09-29T12:42:20.429Z,28.26
2017-09-29T12:43:20.455Z,28.19
2017-09-29T12:44:20.793Z,28.14
2017-09-29T12:45:20.516Z,28.14
2017-09-29T12:46:20.544Z,27.95
2017-09-29T12:47:20.574Z,28
2017-09-29T12:48:20.606Z,27.95
2017-09-29T12:49:20.637Z,28.11
2017-09-29T12:50:20.683Z,28.33
2017-09-29T12:51:20.742Z,28.51
2017-09-29T12:52:20.721Z,28.78
2017-09-29T12:53:20.758Z,28.96
2017-09-29T12:54:20.782Z,29.08
2017-09-29T12:55:20.809Z,29.24